Time;durP1;ratioP1;P1;durP2;ratioP2;P2;SDS_P1;SDS_P2;PMS_P1;PMS_P2;Temp;Humidity;BMP_temperature;BMP_pressure;BME280_temperature;BME280_humidity;BME280_pressure;Samples;Min_cycle;Max_cycle;Signal;HPM_P1;HPM_P2
2022/10/23 00:02:06;;;;;;;7.62;2.47;;;12.40;99.90;;;;;;7312079;32;20128;-60
2022/10/23 00:06:08;;;;;;;6.70;2.12;;;12.40;99.90;;;;;;7316921;32;20583;-60
2022/10/23 00:10:10;;;;;;;6.47;2.08;;;12.40;99.90;;;;;;7315412;32;20129;-59
2022/10/23 00:14:11;;;;;;;6.20;2.17;;;12.30;99.90;;;;;;7319627;32;20199;-59
2022/10/23 00:18:13;;;;;;;13.18;2.12;;;12.30;99.90;;;;;;7315383;32;20224;-59
2022/10/23 00:22:15;;;;;;;12.18;2.25;;;12.20;99.90;;;;;;7317097;32;20142;-59
2022/10/23 00:26:17;;;;;;;7.00;2.00;;;12.30;99.90;;;;;;7318142;32;20235;-60
2022/10/23 00:30:19;;;;;;;12.25;2.37;;;12.30;99.90;;;;;;7316631;32;20137;-59
2022/10/23 00:34:20;;;;;;;6.68;2.40;;;12.30;99.90;;;;;;7319414;32;20111;-59
2022/10/23 00:38:22;;;;;;;8.60;2.30;;;12.30;99.90;;;;;;7319983;32;20698;-59
2022/10/23 00:42:24;;;;;;;8.15;2.00;;;12.30;99.90;;;;;;7324931;32;20221;-61
2022/10/23 00:46:26;;;;;;;7.70;2.45;;;12.30;99.90;;;;;;7320595;32;20116;-61
2022/10/23 00:50:31;;;;;;;9.60;2.30;;;12.30;99.90;;;;;;7316039;32;20224;-59
2022/10/23 00:54:36;;;;;;;7.72;1.85;;;12.40;99.90;;;;;;7325798;32;20597;-59
2022/10/23 00:58:38;;;;;;;10.02;2.37;;;12.40;99.90;;;;;;7316835;32;20144;-61
2022/10/23 01:02:40;;;;;;;12.10;2.35;;;12.30;99.90;;;;;;7318544;32;20245;-59
2022/10/23 01:07:09;;;;;;;8.65;2.20;;;12.40;99.90;;;;;;7321439;32;20261;-59
2022/10/23 01:11:19;;;;;;;5.87;1.92;;;12.40;99.90;;;;;;7326722;32;20161;-58
2022/10/23 01:15:27;;;;;;;10.35;2.08;;;12.50;99.90;;;;;;7316377;32;20139;-58
2022/10/23 01:19:49;;;;;;;8.57;2.40;;;12.50;99.90;;;;;;7325798;32;20211;-59
2022/10/23 01:24:15;;;;;;;6.37;2.05;;;12.70;99.90;;;;;;7323325;32;20112;-59
2022/10/23 01:28:33;;;;;;;5.32;1.95;;;12.70;99.90;;;;;;7323884;32;20436;-59
2022/10/23 01:33:05;;;;;;;8.07;2.30;;;12.70;99.90;;;;;;7316133;32;20256;-60
2022/10/23 01:37:11;;;;;;;7.87;2.20;;;12.70;99.90;;;;;;7317464;32;20491;-59
2022/10/23 01:41:23;;;;;;;11.57;2.20;;;12.70;99.90;;;;;;7314389;32;20618;-59
2022/10/23 01:45:31;;;;;;;10.00;2.65;;;12.70;99.90;;;;;;7316997;32;20217;-60
2022/10/23 01:49:36;;;;;;;4.90;1.75;;;12.70;99.90;;;;;;7320222;32;20962;-59
2022/10/23 01:53:40;;;;;;;9.32;2.30;;;12.70;99.90;;;;;;7315648;32;20123;-59
2022/10/23 01:57:44;;;;;;;7.95;2.25;;;12.70;99.90;;;;;;7320560;32;20265;-59
2022/10/23 02:01:50;;;;;;;5.15;2.20;;;12.70;99.90;;;;;;7321344;32;20719;-60
2022/10/23 02:05:51;;;;;;;5.45;2.00;;;12.70;99.90;;;;;;7321991;32;20120;-59
2022/10/23 02:09:53;;;;;;;8.60;2.12;;;12.70;99.90;;;;;;7316419;32;20142;-59
2022/10/23 02:14:11;;;;;;;4.87;2.62;;;12.70;99.90;;;;;;7321883;32;20221;-59
2022/10/23 02:18:38;;;;;;;9.48;2.25;;;12.60;99.90;;;;;;7317263;32;20138;-59
2022/10/23 02:22:48;;;;;;;7.22;1.73;;;12.70;99.90;;;;;;7323388;32;20281;-60
2022/10/23 02:26:56;;;;;;;7.32;2.28;;;12.60;99.90;;;;;;7316356;32;20137;-59
2022/10/23 02:30:59;;;;;;;6.00;2.30;;;12.60;99.90;;;;;;7318962;32;20137;-60
2022/10/23 02:35:02;;;;;;;11.38;2.08;;;12.60;99.90;;;;;;7318245;32;20147;-59
2022/10/23 02:39:04;;;;;;;6.40;1.73;;;12.60;99.90;;;;;;7315538;32;20718;-59
2022/10/23 02:43:17;;;;;;;9.65;2.45;;;12.70;99.90;;;;;;7316485;32;20126;-61
2022/10/23 02:47:56;;;;;;;4.75;2.08;;;12.70;99.90;;;;;;7315603;32;20108;-59
2022/10/23 02:52:13;;;;;;;10.90;2.33;;;12.70;99.90;;;;;;7312433;32;20157;-58
2022/10/23 02:56:29;;;;;;;8.52;2.28;;;12.70;99.90;;;;;;7311542;32;20195;-59
2022/10/23 03:00:38;;;;;;;5.50;2.35;;;12.70;99.90;;;;;;7316869;32;20143;-59
2022/10/23 03:04:42;;;;;;;7.18;2.28;;;12.60;99.90;;;;;;7321057;32;20127;-58
2022/10/23 03:08:52;;;;;;;7.25;1.92;;;12.60;99.90;;;;;;7315778;32;20126;-59
2022/10/23 03:12:53;;;;;;;5.40;1.75;;;12.60;99.90;;;;;;7320297;32;20217;-59
2022/10/23 03:16:55;;;;;;;6.18;1.85;;;12.50;99.90;;;;;;7321619;32;20229;-59
2022/10/23 03:20:57;;;;;;;10.05;2.12;;;12.40;99.90;;;;;;7322577;32;20224;-59
2022/10/23 03:24:58;;;;;;;5.87;1.90;;;12.40;99.90;;;;;;7323943;32;20138;-59
2022/10/23 03:29:00;;;;;;;8.02;1.85;;;12.30;99.90;;;;;;7323509;32;20566;-59
2022/10/23 03:33:02;;;;;;;12.55;2.20;;;12.30;99.90;;;;;;7311879;32;20111;-59
2022/10/23 03:37:04;;;;;;;5.62;2.03;;;12.20;99.90;;;;;;7323647;32;20202;-59
2022/10/23 03:41:05;;;;;;;11.57;2.00;;;12.00;99.90;;;;;;7334128;32;20229;-60
2022/10/23 03:45:07;;;;;;;7.10;2.10;;;12.00;99.90;;;;;;7323287;32;20112;-60
2022/10/23 03:49:09;;;;;;;9.63;2.25;;;12.00;99.90;;;;;;7326052;32;20250;-59
2022/10/23 03:53:11;;;;;;;8.63;1.90;;;12.00;99.90;;;;;;7315326;32;20112;-58
2022/10/23 03:57:13;;;;;;;8.77;2.30;;;11.90;99.90;;;;;;7323535;32;20573;-58
2022/10/23 04:01:14;;;;;;;8.57;2.70;;;11.90;99.90;;;;;;7319712;32;20133;-59
2022/10/23 04:05:16;;;;;;;6.53;1.77;;;11.90;99.90;;;;;;7327101;32;20242;-60
2022/10/23 04:09:18;;;;;;;8.02;1.92;;;11.90;99.90;;;;;;7327128;32;20151;-60
2022/10/23 04:13:20;;;;;;;8.80;2.08;;;11.90;99.90;;;;;;7316238;32;20103;-59
2022/10/23 04:17:21;;;;;;;18.17;2.80;;;11.90;99.90;;;;;;7322635;32;20108;-59
2022/10/23 04:21:23;;;;;;;9.90;2.20;;;11.90;99.90;;;;;;7327084;32;20880;-59
2022/10/23 04:25:25;;;;;;;7.47;1.95;;;11.80;99.90;;;;;;7325846;32;20099;-59
2022/10/23 04:29:30;;;;;;;6.47;2.00;;;11.80;99.90;;;;;;7322357;32;20138;-59
2022/10/23 04:33:32;;;;;;;10.38;2.20;;;11.80;99.90;;;;;;7325291;32;20218;-59
2022/10/23 04:37:34;;;;;;;9.40;2.00;;;11.80;99.90;;;;;;7322515;32;20186;-59
2022/10/23 04:41:37;;;;;;;10.15;1.87;;;11.90;99.90;;;;;;7329424;32;20202;-58
2022/10/23 04:45:39;;;;;;;8.85;2.30;;;11.90;99.90;;;;;;7325919;32;20115;-58
2022/10/23 04:49:41;;;;;;;5.15;2.28;;;12.10;99.90;;;;;;7319985;32;20186;-59
2022/10/23 04:53:42;;;;;;;4.87;2.40;;;12.10;99.90;;;;;;7324270;32;20710;-58
2022/10/23 04:57:44;;;;;;;6.57;2.47;;;12.20;99.90;;;;;;7323644;32;20108;-59
2022/10/23 05:01:46;;;;;;;10.38;2.60;;;12.40;99.90;;;;;;7322936;32;20657;-59
2022/10/23 05:05:47;;;;;;;5.78;2.33;;;12.50;99.90;;;;;;7323972;32;20145;-59
2022/10/23 05:09:49;;;;;;;3.42;1.75;;;12.70;99.90;;;;;;7314033;32;20487;-59
2022/10/23 05:13:51;;;;;;;4.80;2.25;;;12.70;99.90;;;;;;7313459;32;20246;-59
2022/10/23 05:18:03;;;;;;;6.22;1.87;;;12.70;99.90;;;;;;7319252;32;22781;-59
2022/10/23 05:22:05;;;;;;;4.80;2.25;;;12.80;99.90;;;;;;7323538;32;20147;-59
2022/10/23 05:26:07;;;;;;;12.35;2.20;;;12.80;99.90;;;;;;7321128;32;20139;-59
2022/10/23 05:30:10;;;;;;;5.25;1.58;;;12.90;99.90;;;;;;7318545;32;20116;-59
2022/10/23 05:34:15;;;;;;;4.55;1.73;;;12.90;99.90;;;;;;7314272;32;20197;-59
2022/10/23 05:38:17;;;;;;;6.28;1.73;;;12.90;99.90;;;;;;7315687;32;20149;-59
2022/10/23 05:42:19;;;;;;;4.47;1.55;;;12.90;99.90;;;;;;7316391;32;20112;-59
2022/10/23 05:46:22;;;;;;;5.40;1.60;;;13.00;99.90;;;;;;7319837;32;20176;-59
2022/10/23 05:50:23;;;;;;;5.80;2.08;;;13.00;99.90;;;;;;7313317;32;20483;-60
2022/10/23 05:54:25;;;;;;;8.55;2.15;;;13.00;99.90;;;;;;7311334;32;20223;-61
2022/10/23 05:58:27;;;;;;;6.43;1.60;;;13.00;99.90;;;;;;7315117;32;20133;-62
2022/10/23 06:02:29;;;;;;;4.40;1.70;;;13.10;99.90;;;;;;7314470;32;20134;-60
2022/10/23 06:06:30;;;;;;;4.85;1.85;;;13.00;99.90;;;;;;7318398;32;20110;-61
2022/10/23 06:10:32;;;;;;;5.07;2.05;;;12.90;99.90;;;;;;7310277;32;22128;-60
2022/10/23 06:14:34;;;;;;;6.55;2.00;;;12.90;99.90;;;;;;7318931;32;20141;-60
2022/10/23 06:18:36;;;;;;;5.60;1.58;;;13.00;99.90;;;;;;7315344;32;20217;-62
2022/10/23 06:22:38;;;;;;;3.87;1.80;;;13.00;99.90;;;;;;7309343;32;20130;-64
2022/10/23 06:26:39;;;;;;;6.12;1.70;;;13.00;99.90;;;;;;7311251;32;20103;-64
2022/10/23 06:30:41;;;;;;;7.85;1.77;;;13.00;99.90;;;;;;7311396;32;20832;-64
2022/10/23 06:34:43;;;;;;;4.68;1.50;;;13.00;99.90;;;;;;7312179;32;20610;-65
2022/10/23 06:38:44;;;;;;;3.53;1.60;;;13.10;99.90;;;;;;7322774;32;20207;-63
2022/10/23 06:42:46;;;;;;;8.75;2.28;;;13.10;99.90;;;;;;7316436;32;20546;-62
2022/10/23 06:46:48;;;;;;;4.18;1.30;;;13.10;99.90;;;;;;7318574;32;20115;-62
2022/10/23 06:50:50;;;;;;;7.35;1.58;;;13.30;99.90;;;;;;7318324;32;20685;-62
2022/10/23 06:54:51;;;;;;;4.65;1.23;;;13.40;99.90;;;;;;7319661;32;20504;-62
2022/10/23 06:58:53;;;;;;;5.47;1.70;;;13.50;99.90;;;;;;7320218;32;20526;-61
2022/10/23 07:02:55;;;;;;;3.87;1.67;;;13.50;99.90;;;;;;7308480;32;20119;-65
2022/10/23 07:06:57;;;;;;;10.82;1.85;;;13.50;99.90;;;;;;7310653;32;20170;-65
2022/10/23 07:11:07;;;;;;;6.07;1.77;;;13.50;99.90;;;;;;7317965;32;20103;-64
2022/10/23 07:15:08;;;;;;;6.10;1.58;;;13.60;99.90;;;;;;7313034;32;20174;-63
2022/10/23 07:19:10;;;;;;;4.28;1.73;;;13.70;99.90;;;;;;7316012;32;20216;-63
2022/10/23 07:23:15;;;;;;;6.78;1.73;;;13.80;99.90;;;;;;7313839;32;20116;-61
2022/10/23 07:27:16;;;;;;;4.03;1.55;;;13.80;99.90;;;;;;7313807;32;20198;-61
2022/10/23 07:31:18;;;;;;;3.97;1.33;;;13.90;99.90;;;;;;7314314;32;20115;-63
2022/10/23 07:35:26;;;;;;;6.15;1.73;;;13.90;99.90;;;;;;7321010;32;20245;-64
2022/10/23 07:39:28;;;;;;;4.95;1.33;;;13.90;99.90;;;;;;7322482;32;20134;-64
2022/10/23 07:43:30;;;;;;;6.65;1.65;;;14.10;99.90;;;;;;7322531;32;20110;-61
2022/10/23 07:47:33;;;;;;;7.90;1.77;;;14.20;99.90;;;;;;7310566;32;20123;-61
2022/10/23 07:51:34;;;;;;;4.45;1.30;;;14.30;99.90;;;;;;7316583;32;20158;-62
2022/10/23 07:55:36;;;;;;;4.82;1.50;;;14.30;99.90;;;;;;7309193;32;20218;-62
2022/10/23 07:59:38;;;;;;;8.75;1.33;;;14.60;99.90;;;;;;7313427;32;20120;-63
2022/10/23 08:03:39;;;;;;;3.90;1.30;;;14.60;99.90;;;;;;7313009;32;20124;-61
2022/10/23 08:07:41;;;;;;;3.03;1.10;;;14.90;99.90;;;;;;7312412;32;20138;-62
2022/10/23 08:11:43;;;;;;;4.40;1.35;;;15.10;99.90;;;;;;7313975;32;20528;-62
2022/10/23 08:15:45;;;;;;;3.72;1.10;;;15.30;99.90;;;;;;7311885;32;20115;-63
2022/10/23 08:19:47;;;;;;;2.75;1.08;;;15.50;99.90;;;;;;7309315;32;20130;-63
2022/10/23 08:23:55;;;;;;;6.57;1.30;;;15.60;99.90;;;;;;7313229;32;20464;-63
2022/10/23 08:27:57;;;;;;;3.42;1.00;;;15.80;99.90;;;;;;7315129;32;20207;-63
2022/10/23 08:32:01;;;;;;;4.37;1.12;;;15.90;99.90;;;;;;7320931;32;20125;-61
2022/10/23 08:36:03;;;;;;;5.80;1.10;;;16.10;99.90;;;;;;7326750;32;20141;-62
2022/10/23 08:40:05;;;;;;;6.32;1.25;;;16.20;99.90;;;;;;7322285;32;20153;-62
2022/10/23 08:44:25;;;;;;;4.05;1.20;;;16.40;99.90;;;;;;7323365;32;20138;-64
2022/10/23 08:48:36;;;;;;;6.07;1.35;;;16.50;99.90;;;;;;7319442;32;20269;-64
2022/10/23 08:52:44;;;;;;;4.00;1.30;;;16.60;99.90;;;;;;7322518;32;20194;-66
2022/10/23 08:57:12;;;;;;;3.92;1.20;;;16.80;99.90;;;;;;7314417;32;20240;-62
2022/10/23 09:01:33;;;;;;;6.40;1.20;;;16.70;99.90;;;;;;7321823;32;20108;-62
2022/10/23 09:05:49;;;;;;;4.20;1.20;;;17.00;99.90;;;;;;7315880;32;20108;-63
2022/10/23 09:10:00;;;;;;;5.55;1.25;;;17.10;99.90;;;;;;7319324;32;20115;-62
2022/10/23 09:14:13;;;;;;;4.07;0.95;;;17.10;99.90;;;;;;7319090;32;20193;-63
2022/10/23 09:18:16;;;;;;;4.47;1.20;;;17.10;99.90;;;;;;7318682;32;20531;-62
2022/10/23 09:22:18;;;;;;;5.95;1.65;;;17.10;99.90;;;;;;7313390;32;20460;-63
2022/10/23 09:26:19;;;;;;;4.10;1.25;;;17.10;99.90;;;;;;7312261;32;20111;-63
2022/10/23 09:30:32;;;;;;;4.28;1.25;;;17.00;99.90;;;;;;7310499;32;20695;-61
2022/10/23 09:34:34;;;;;;;3.10;1.00;;;17.10;99.90;;;;;;7315589;32;20972;-62
2022/10/23 09:38:46;;;;;;;5.07;2.10;;;17.10;99.90;;;;;;7324964;32;20100;-63
2022/10/23 09:43:12;;;;;;;3.78;1.20;;;17.20;99.90;;;;;;7319981;32;20141;-62
2022/10/23 09:47:19;;;;;;;7.35;1.20;;;17.10;99.90;;;;;;7318831;32;20179;-62
2022/10/23 09:51:21;;;;;;;4.85;1.00;;;17.30;99.90;;;;;;7317875;32;20142;-63
2022/10/23 09:55:24;;;;;;;8.48;1.52;;;17.40;99.90;;;;;;7319588;32;20587;-62
2022/10/23 09:59:30;;;;;;;3.95;1.17;;;17.50;99.90;;;;;;7313447;32;20203;-62
2022/10/23 10:03:32;;;;;;;6.85;1.08;;;17.60;99.90;;;;;;7311235;32;20142;-62
2022/10/23 10:07:33;;;;;;;6.30;1.08;;;17.80;99.90;;;;;;7318089;32;20277;-62
2022/10/23 10:11:58;;;;;;;3.87;1.60;;;17.90;99.90;;;;;;7322341;32;20107;-62
2022/10/23 10:16:25;;;;;;;2.40;1.20;;;18.00;99.90;;;;;;7315873;32;20201;-62
2022/10/23 10:20:39;;;;;;;5.20;1.30;;;18.00;99.90;;;;;;7315462;32;20202;-64
2022/10/23 10:25:09;;;;;;;3.47;1.40;;;18.00;99.90;;;;;;7317903;32;20533;-63
2022/10/23 10:29:11;;;;;;;6.12;1.10;;;18.10;99.90;;;;;;7309836;32;20146;-62
2022/10/23 10:33:25;;;;;;;7.57;1.30;;;18.20;99.90;;;;;;7316399;32;20486;-64
2022/10/23 10:37:42;;;;;;;4.80;1.00;;;18.20;99.90;;;;;;7313953;32;20206;-62
2022/10/23 10:42:06;;;;;;;4.60;1.20;;;18.20;99.90;;;;;;7316905;32;20502;-61
2022/10/23 10:46:27;;;;;;;4.18;0.90;;;18.20;99.90;;;;;;7312917;32;20139;-62
2022/10/23 10:50:44;;;;;;;3.03;1.00;;;18.30;99.90;;;;;;7310811;32;20100;-62
2022/10/23 10:55:08;;;;;;;3.17;1.00;;;18.30;99.90;;;;;;7329178;32;20746;-62
2022/10/23 10:59:30;;;;;;;9.13;1.00;;;18.30;99.90;;;;;;7316419;32;20209;-62
2022/10/23 11:03:44;;;;;;;3.28;1.00;;;18.40;99.90;;;;;;7312444;32;20116;-61
2022/10/23 11:08:12;;;;;;;5.10;1.10;;;18.60;99.90;;;;;;7314333;32;22406;-64
2022/10/23 11:12:16;;;;;;;;;;;18.60;99.90;;;;;;7312182;32;20172;-62
2022/10/23 11:16:35;;;;;;;3.97;1.27;;;18.60;99.90;;;;;;7311710;32;20021;-62
2022/10/23 11:20:58;;;;;;;5.22;1.20;;;18.50;99.90;;;;;;7310694;32;20619;-64
2022/10/23 11:25:19;;;;;;;4.12;0.90;;;18.50;99.90;;;;;;7311371;32;20153;-62
2022/10/23 11:29:40;;;;;;;3.15;0.80;;;18.50;99.90;;;;;;7311957;32;20100;-63
2022/10/23 11:34:07;;;;;;;2.90;0.80;;;18.50;99.90;;;;;;7314730;32;20114;-65
2022/10/23 11:38:17;;;;;;;5.05;1.15;;;18.40;99.90;;;;;;7306132;32;20307;-62
2022/10/23 11:42:37;;;;;;;2.62;0.80;;;18.50;99.90;;;;;;7311278;32;20665;-62
2022/10/23 11:46:39;;;;;;;3.42;1.00;;;18.40;99.90;;;;;;7312480;32;20551;-62
2022/10/23 11:50:43;;;;;;;5.70;1.23;;;18.30;99.90;;;;;;7308269;32;20107;-62
2022/10/23 11:54:45;;;;;;;4.20;1.00;;;18.40;99.90;;;;;;7310552;32;20107;-61
2022/10/23 11:58:50;;;;;;;5.18;0.82;;;18.30;99.90;;;;;;7316127;32;20253;-57
2022/10/23 12:02:53;;;;;;;9.82;1.00;;;18.30;99.90;;;;;;7315819;32;20124;-62
2022/10/23 12:07:03;;;;;;;4.12;1.05;;;18.30;99.90;;;;;;7319020;32;20119;-61
2022/10/23 12:11:23;;;;;;;5.30;1.05;;;18.50;99.90;;;;;;7316648;32;20111;-61
2022/10/23 12:15:28;;;;;;;6.22;0.98;;;18.60;99.90;;;;;;7314134;32;20123;-58
2022/10/23 12:19:46;;;;;;;2.40;1.00;;;18.90;99.90;;;;;;7313117;32;20103;-60
2022/10/23 12:24:13;;;;;;;7.55;1.27;;;18.90;99.90;;;;;;7317182;32;20138;-59
2022/10/23 12:28:49;;;;;;;3.70;1.10;;;19.00;99.90;;;;;;7318383;32;20129;-60
2022/10/23 12:32:54;;;;;;;4.93;1.00;;;19.10;99.90;;;;;;7322035;32;20448;-60
2022/10/23 12:36:58;;;;;;;3.67;1.05;;;19.30;99.90;;;;;;7317978;32;20604;-60
2022/10/23 12:41:24;;;;;;;6.85;1.58;;;19.20;99.90;;;;;;7320832;32;20433;-62
2022/10/23 12:45:31;;;;;;;6.47;1.20;;;19.20;99.90;;;;;;7315720;32;20197;-59
2022/10/23 12:49:34;;;;;;;7.55;1.10;;;19.30;99.90;;;;;;7313970;32;20347;-60
2022/10/23 12:53:36;;;;;;;4.53;1.00;;;19.20;99.90;;;;;;7309407;32;20567;-65
2022/10/23 12:57:42;;;;;;;6.57;1.30;;;19.30;99.90;;;;;;7314103;32;20262;-63
2022/10/23 13:01:44;;;;;;;8.93;1.10;;;19.30;99.90;;;;;;7331448;32;20108;-61
2022/10/23 13:05:54;;;;;;;4.40;1.08;;;19.20;99.90;;;;;;7317125;32;20945;-62
2022/10/23 13:09:57;;;;;;;6.10;1.10;;;19.20;99.90;;;;;;7318309;32;20199;-63
2022/10/23 13:14:00;;;;;;;6.87;1.30;;;19.10;99.90;;;;;;7317635;32;20190;-62
2022/10/23 13:18:03;;;;;;;4.30;1.45;;;19.00;99.90;;;;;;7323964;32;20555;-61
2022/10/23 13:22:18;;;;;;;5.75;1.30;;;19.00;99.90;;;;;;7316907;32;20129;-61
2022/10/23 13:26:32;;;;;;;6.35;1.52;;;19.00;99.90;;;;;;7314651;32;20149;-63
2022/10/23 13:30:41;;;;;;;3.62;1.00;;;18.70;99.90;;;;;;7311787;32;20225;-62
2022/10/23 13:34:58;;;;;;;4.87;1.55;;;18.70;99.90;;;;;;7321832;32;20427;-61
2022/10/23 13:39:25;;;;;;;5.00;1.35;;;18.70;99.90;;;;;;7323214;32;20191;-61
2022/10/23 13:43:29;;;;;;;7.18;1.60;;;18.50;99.90;;;;;;7311894;32;20213;-61
2022/10/23 13:47:31;;;;;;;9.20;1.45;;;18.70;99.90;;;;;;7317180;32;20134;-61
2022/10/23 13:51:43;;;;;;;3.97;1.42;;;18.50;99.90;;;;;;7313194;32;20120;-58
2022/10/23 13:55:49;;;;;;;4.37;1.25;;;18.40;99.90;;;;;;7316036;32;20104;-61
2022/10/23 13:59:55;;;;;;;6.78;1.40;;;18.50;99.90;;;;;;7313121;32;20108;-61
2022/10/23 14:03:57;;;;;;;2.70;1.20;;;18.50;99.90;;;;;;7316867;32;20107;-61
2022/10/23 14:07:59;;;;;;;7.10;1.55;;;18.50;99.90;;;;;;7315311;32;20111;-61
2022/10/23 14:12:00;;;;;;;4.68;1.55;;;18.50;99.90;;;;;;7315726;32;20115;-61
2022/10/23 14:16:02;;;;;;;7.53;2.58;;;18.40;99.90;;;;;;7317890;32;20548;-61
2022/10/23 14:20:05;;;;;;;5.03;2.22;;;18.40;99.90;;;;;;7320622;32;20135;-62
2022/10/23 14:24:08;;;;;;;2.35;1.30;;;18.40;99.90;;;;;;7314136;32;20437;-61
2022/10/23 14:28:09;;;;;;;4.53;1.50;;;18.40;99.90;;;;;;7316891;32;20255;-61
2022/10/23 14:32:11;;;;;;;5.07;1.45;;;18.40;99.90;;;;;;7313933;32;20135;-61
2022/10/23 14:36:13;;;;;;;4.72;1.42;;;18.40;99.90;;;;;;7316175;32;20802;-62
2022/10/23 14:40:14;;;;;;;8.18;1.50;;;18.30;99.90;;;;;;7314542;32;20130;-62
2022/10/23 14:44:16;;;;;;;5.53;1.50;;;18.20;99.90;;;;;;7314104;32;20623;-60
2022/10/23 14:48:18;;;;;;;6.95;1.83;;;18.20;99.90;;;;;;7314362;32;20578;-62
2022/10/23 14:52:19;;;;;;;5.93;1.52;;;18.20;99.90;;;;;;7317668;32;20590;-62
2022/10/23 14:56:22;;;;;;;6.43;1.40;;;18.10;99.90;;;;;;7310183;32;20441;-61
2022/10/23 15:00:23;;;;;;;5.12;1.50;;;18.00;99.90;;;;;;7311279;32;20316;-61
2022/10/23 15:04:25;;;;;;;6.72;1.90;;;18.00;99.90;;;;;;7318448;32;20611;-61
2022/10/23 15:08:27;;;;;;;6.05;1.48;;;17.90;99.90;;;;;;7314206;32;20116;-63
2022/10/23 15:12:29;;;;;;;4.00;1.45;;;17.90;99.90;;;;;;7318331;32;20484;-62
2022/10/23 15:16:30;;;;;;;4.47;1.50;;;17.90;99.90;;;;;;7313336;32;20536;-62
2022/10/23 15:20:32;;;;;;;6.32;1.90;;;17.70;99.90;;;;;;7317410;32;20959;-62
2022/10/23 15:24:34;;;;;;;4.40;1.70;;;17.50;99.90;;;;;;7313106;32;20212;-63
2022/10/23 15:28:36;;;;;;;9.38;1.90;;;17.20;99.90;;;;;;7319512;32;20104;-61
2022/10/23 15:32:37;;;;;;;7.43;2.30;;;17.00;99.90;;;;;;7315491;32;20200;-62
2022/10/23 15:36:39;;;;;;;4.68;1.70;;;17.00;99.90;;;;;;7309504;32;20183;-62
2022/10/23 15:40:43;;;;;;;14.32;2.30;;;17.00;99.90;;;;;;7307150;32;20111;-61
2022/10/23 15:44:45;;;;;;;5.45;2.37;;;16.80;99.90;;;;;;7311866;32;20115;-62
2022/10/23 15:48:47;;;;;;;7.55;2.50;;;16.70;99.90;;;;;;7308982;32;20658;-62
2022/10/23 15:52:49;;;;;;;7.35;2.65;;;16.60;99.90;;;;;;7316086;32;20491;-61
2022/10/23 15:56:53;;;;;;;5.07;2.40;;;16.40;99.90;;;;;;7326894;32;20131;-62
2022/10/23 16:00:54;;;;;;;8.15;2.75;;;16.30;99.90;;;;;;7315226;32;20111;-62
2022/10/23 16:04:56;;;;;;;9.40;4.10;;;16.20;99.90;;;;;;7312389;32;20107;-63
2022/10/23 16:08:58;;;;;;;7.80;3.03;;;16.10;99.90;;;;;;7316401;32;20271;-63
2022/10/23 16:13:00;;;;;;;11.10;3.35;;;16.00;99.90;;;;;;7316407;32;20184;-62
2022/10/23 16:17:02;;;;;;;14.23;3.40;;;15.90;99.90;;;;;;7328458;32;20220;-61
2022/10/23 16:21:04;;;;;;;7.18;3.33;;;15.80;99.90;;;;;;7312662;32;20155;-62
2022/10/23 16:25:06;;;;;;;10.90;3.87;;;15.90;99.90;;;;;;7314060;32;20539;-63
2022/10/23 16:29:08;;;;;;;8.27;3.17;;;15.80;99.90;;;;;;7312894;32;20230;-63
2022/10/23 16:33:10;;;;;;;7.68;3.28;;;15.70;99.90;;;;;;7313019;32;20111;-63
2022/10/23 16:37:12;;;;;;;5.93;2.67;;;15.60;99.90;;;;;;7313776;32;20230;-59
2022/10/23 16:41:14;;;;;;;5.03;2.78;;;15.50;99.90;;;;;;7314031;32;21149;-60
2022/10/23 16:45:16;;;;;;;10.15;2.97;;;15.60;99.90;;;;;;7312112;32;20111;-59
2022/10/23 16:49:18;;;;;;;8.32;3.20;;;15.60;99.90;;;;;;7312674;32;20932;-60
2022/10/23 16:53:19;;;;;;;15.77;3.20;;;15.50;99.90;;;;;;7311001;32;20111;-59
2022/10/23 16:57:21;;;;;;;13.88;4.10;;;15.40;99.90;;;;;;7319182;32;20111;-61
2022/10/23 17:01:26;;;;;;;9.30;4.35;;;15.50;99.90;;;;;;7320919;32;20111;-60
2022/10/23 17:05:34;;;;;;;7.30;3.28;;;15.50;99.90;;;;;;7315591;32;20198;-59
2022/10/23 17:09:37;;;;;;;10.77;4.15;;;15.40;99.90;;;;;;7313007;32;20469;-60
2022/10/23 17:13:41;;;;;;;10.43;3.80;;;15.40;99.90;;;;;;7318676;32;20275;-59
2022/10/23 17:17:43;;;;;;;10.75;3.60;;;15.40;99.90;;;;;;7315876;32;20803;-59
2022/10/23 17:21:46;;;;;;;8.82;3.65;;;15.50;99.90;;;;;;7317133;32;20130;-59
2022/10/23 17:25:48;;;;;;;11.90;5.40;;;15.40;99.90;;;;;;7319413;32;20099;-60
2022/10/23 17:29:50;;;;;;;10.23;3.62;;;15.40;99.90;;;;;;7311132;32;20159;-60
2022/10/23 17:33:56;;;;;;;13.05;6.93;;;15.40;99.90;;;;;;7322938;32;22336;-60
2022/10/23 17:37:57;;;;;;;78.25;47.80;;;15.40;99.90;;;;;;7317139;32;20228;-61
2022/10/23 17:41:59;;;;;;;166.82;87.88;;;15.30;99.90;;;;;;7324302;32;20230;-59
2022/10/23 17:46:03;;;;;;;16.90;9.25;;;15.20;99.90;;;;;;7316660;32;20158;-63
2022/10/23 17:50:08;;;;;;;10.23;3.78;;;15.40;99.90;;;;;;7315695;32;20210;-60
2022/10/23 17:54:11;;;;;;;10.13;3.85;;;15.30;99.90;;;;;;7311345;32;20476;-60
2022/10/23 17:58:12;;;;;;;11.02;4.82;;;15.30;99.90;;;;;;7314964;32;20634;-61
2022/10/23 18:02:14;;;;;;;8.35;3.22;;;15.30;99.90;;;;;;7314625;32;20134;-59
2022/10/23 18:06:19;;;;;;;14.90;5.40;;;15.30;99.90;;;;;;7317185;32;20181;-63
2022/10/23 18:10:22;;;;;;;10.93;5.35;;;15.40;99.90;;;;;;7314020;32;20103;-60
2022/10/23 18:14:24;;;;;;;9.32;4.32;;;15.30;99.90;;;;;;7315848;32;20138;-60
2022/10/23 18:18:30;;;;;;;7.37;3.30;;;15.20;99.90;;;;;;7311943;32;20116;-61
2022/10/23 18:22:32;;;;;;;7.45;3.55;;;15.30;99.90;;;;;;7315484;32;20126;-60
2022/10/23 18:26:36;;;;;;;6.32;3.22;;;15.30;99.90;;;;;;7315311;32;20206;-62
2022/10/23 18:30:38;;;;;;;7.30;2.60;;;15.30;99.90;;;;;;7317137;32;20242;-61
2022/10/23 18:34:44;;;;;;;5.60;2.85;;;15.30;99.90;;;;;;7315412;32;20139;-61
2022/10/23 18:38:47;;;;;;;6.43;2.12;;;15.30;99.90;;;;;;7313983;32;20716;-64
2022/10/23 18:42:48;;;;;;;8.65;2.33;;;15.30;99.90;;;;;;7310007;32;20260;-61
2022/10/23 18:46:51;;;;;;;6.50;2.15;;;15.30;99.90;;;;;;7318696;32;20115;-62
2022/10/23 18:50:52;;;;;;;6.95;2.15;;;15.30;99.90;;;;;;7312824;32;20679;-62
2022/10/23 18:54:54;;;;;;;5.03;2.00;;;15.20;99.90;;;;;;7317467;32;20112;-64
2022/10/23 18:58:58;;;;;;;11.63;2.00;;;15.20;99.90;;;;;;7313595;32;20226;-63
2022/10/23 19:03:00;;;;;;;5.50;1.73;;;15.20;99.90;;;;;;7310069;32;20531;-63
2022/10/23 19:07:02;;;;;;;4.00;1.87;;;15.20;99.90;;;;;;7310341;32;20538;-63
2022/10/23 19:11:06;;;;;;;7.85;1.98;;;15.10;99.90;;;;;;7321332;32;20180;-62
2022/10/23 19:15:08;;;;;;;6.07;2.03;;;15.20;99.90;;;;;;7316541;32;20194;-61
2022/10/23 19:19:23;;;;;;;6.12;1.92;;;15.20;99.90;;;;;;7313725;32;20111;-63
2022/10/23 19:23:28;;;;;;;5.45;2.20;;;15.20;99.90;;;;;;7321880;32;20115;-62
2022/10/23 19:27:30;;;;;;;4.82;1.60;;;15.20;99.90;;;;;;7311814;32;20444;-61
2022/10/23 19:31:32;;;;;;;5.40;1.73;;;15.20;99.90;;;;;;7309706;32;20134;-64
2022/10/23 19:35:34;;;;;;;4.68;1.83;;;15.20;99.90;;;;;;7315485;32;20670;-61
2022/10/23 19:39:35;;;;;;;5.85;2.12;;;15.20;99.90;;;;;;7319775;32;20201;-63
2022/10/23 19:43:37;;;;;;;3.78;1.52;;;15.20;99.90;;;;;;7310327;32;20135;-63
2022/10/23 19:47:40;;;;;;;3.58;1.62;;;15.20;99.90;;;;;;7311281;32;20199;-63
2022/10/23 19:51:44;;;;;;;5.40;1.83;;;15.10;99.90;;;;;;7313534;32;20555;-62
2022/10/23 19:56:01;;;;;;;6.30;1.70;;;15.10;99.90;;;;;;7313040;32;20121;-63
2022/10/23 20:00:05;;;;;;;5.10;1.77;;;15.20;99.90;;;;;;7310677;32;20116;-63
2022/10/23 20:04:07;;;;;;;4.45;1.80;;;15.10;99.90;;;;;;7317019;32;20203;-62
2022/10/23 20:08:10;;;;;;;4.30;1.80;;;15.10;99.90;;;;;;7322051;32;20271;-62
2022/10/23 20:12:12;;;;;;;6.20;1.95;;;15.10;99.90;;;;;;7309054;32;20141;-62
2022/10/23 20:16:28;;;;;;;6.18;2.17;;;15.10;99.90;;;;;;7313983;32;20445;-61
2022/10/23 20:20:30;;;;;;;6.53;1.85;;;15.10;99.90;;;;;;7316505;32;20531;-62
2022/10/23 20:24:32;;;;;;;3.78;1.65;;;15.00;99.90;;;;;;7316106;32;20103;-60
2022/10/23 20:28:34;;;;;;;4.72;1.80;;;15.20;99.90;;;;;;7319045;32;20223;-61
2022/10/23 20:32:35;;;;;;;9.27;2.03;;;15.20;99.90;;;;;;7315943;32;20150;-63
2022/10/23 20:36:40;;;;;;;5.53;1.70;;;15.30;99.90;;;;;;7320616;32;20992;-61
2022/10/23 20:40:47;;;;;;;9.27;1.80;;;15.40;99.90;;;;;;7316018;32;20889;-60
2022/10/23 20:44:49;;;;;;;5.03;2.37;;;15.40;99.90;;;;;;7312836;32;20258;-61
2022/10/23 20:48:51;;;;;;;5.32;2.03;;;15.50;99.90;;;;;;7316036;32;20241;-61
2022/10/23 20:52:53;;;;;;;6.37;2.42;;;15.50;99.90;;;;;;7319420;32;20130;-61
2022/10/23 20:56:55;;;;;;;4.62;1.85;;;15.40;99.90;;;;;;7313714;32;20108;-61
2022/10/23 21:01:02;;;;;;;9.25;2.90;;;15.30;99.90;;;;;;7319806;32;20142;-62
2022/10/23 21:05:04;;;;;;;7.18;2.30;;;15.20;99.90;;;;;;7318499;32;20123;-61
2022/10/23 21:09:06;;;;;;;5.57;2.50;;;15.10;99.90;;;;;;7319998;32;20120;-63
2022/10/23 21:13:08;;;;;;;7.22;2.17;;;15.00;99.90;;;;;;7325622;32;20137;-62
2022/10/23 21:17:15;;;;;;;4.85;1.98;;;15.00;99.90;;;;;;7319914;32;20106;-60